WXM80 ListenWXM80 Stop

You find our weather info also at:

UK Metoffice

WeatherCloud

Weather Underground

Northeastern Weather Network

AWEKAS

Citizen Weather Observer Program (CWOP)

HAMweather, WeatherForYou, PWS Weather


Weather Underground History page Text

Daily Summary for August 19, 2017 Units:  Both    English   Metric
« Previous Day
Next Day »
Daily Weekly Monthly Yearly Custom
  High: Low: Average:
Temperature: 92.2 °F /  33.4 °C 72.2 °F /  22.3 °C 80 °F /  26.7 °C
Dew Point: 78.0 °F /  25.6 °C 67.4 °F /  19.7 °C 71.4 °F /  21.9 °C
Humidity: 98 % 48 % 78 %
Wind Speed: 6.0 mph /  9.7 km/h - 1 mph /  1.6 km/h
Wind Gust: 10.4 mph /  16.7 km/h - -
Wind:- - WSW
Pressure: 29.83 in /  1010 hPa 29.70 in /  1005.6 hPa -
Precipitation: 0.01 in /  0.25 mm    
Historical Graphs
 
 
Tabular Data for August 19, 2017
Time Temperature Dew Point Pressure Wind Wind Speed Wind Gust Humidity Rainfall Rate (Hourly)
00:00 73.8 °F /  23.2 °C 72.3 °F /  22.4 °C 29.74 in /  1007 hPa Calm   2.3 mph /  3.7 km/h 95 % 0.00 in /  0 mm
00:05 73.8 °F /  23.2 °C 72.3 °F /  22.4 °C 29.75 in /  1007.3 hPa Calm   1.0 mph /  1.6 km/h 95 % 0.00 in /  0 mm
00:10 73.7 °F /  23.2 °C 72.2 °F /  22.3 °C 29.74 in /  1007 hPa SW 1.3 mph /  2.1 km/h 2.3 mph /  3.7 km/h 95 % 0.00 in /  0 mm
00:15 73.7 °F /  23.2 °C 72.2 °F /  22.3 °C 29.74 in /  1007 hPa West 4.1 mph /  6.6 km/h 5.8 mph /  9.3 km/h 95 % 0.00 in /  0 mm
00:21 73.7 °F /  23.2 °C 72.2 °F /  22.3 °C 29.74 in /  1007 hPa WSW 2.8 mph /  4.5 km/h 4.0 mph /  6.4 km/h 95 % 0.00 in /  0 mm
00:26 73.6 °F /  23.1 °C 72.1 °F /  22.3 °C 29.74 in /  1007 hPa SW 3.0 mph /  4.8 km/h 10.0 mph /  16.1 km/h 95 % 0.00 in /  0 mm
00:31 73.6 °F /  23.1 °C 72.1 °F /  22.3 °C 29.74 in /  1007 hPa SSW 3.2 mph /  5.1 km/h 6.9 mph /  11.1 km/h 95 % 0.00 in /  0 mm
00:36 73.5 °F /  23.1 °C 72.0 °F /  22.2 °C 29.74 in /  1007 hPa SW 3.0 mph /  4.8 km/h 10.0 mph /  16.1 km/h 95 % 0.00 in /  0 mm
00:41 73.5 °F /  23.1 °C 72.0 °F /  22.2 °C 29.74 in /  1007 hPa WSW 2.0 mph /  3.2 km/h 8.0 mph /  12.9 km/h 95 % 0.00 in /  0 mm
00:46 73.5 °F /  23.1 °C 72.0 °F /  22.2 °C 29.74 in /  1007 hPa WSW 2.0 mph /  3.2 km/h 6.0 mph /  9.7 km/h 95 % 0.00 in /  0 mm
00:51 73.5 °F /  23.1 °C 72.0 °F /  22.2 °C 29.73 in /  1006.7 hPa WSW 3.0 mph /  4.8 km/h 8.0 mph /  12.9 km/h 95 % 0.00 in /  0 mm
00:55 73.5 °F /  23.1 °C 72.0 °F /  22.2 °C 29.73 in /  1006.7 hPa SW 1.0 mph /  1.6 km/h 3.5 mph /  5.6 km/h 95 % 0.00 in /  0 mm
01:01 73.5 °F /  23.1 °C 72.0 °F /  22.2 °C 29.73 in /  1006.7 hPa WSW 3.2 mph /  5.1 km/h 4.6 mph /  7.4 km/h 95 % 0.00 in /  0 mm
01:06 73.5 °F /  23.1 °C 72.0 °F /  22.2 °C 29.73 in /  1006.7 hPa West 3.2 mph /  5.1 km/h 5.8 mph /  9.3 km/h 95 % 0.00 in /  0 mm
01:11 73.5 °F /  23.1 °C 72.0 °F /  22.2 °C 29.72 in /  1006.3 hPa SSW 1.3 mph /  2.1 km/h 3.5 mph /  5.6 km/h 95 % 0.00 in /  0 mm
01:16 73.5 °F /  23.1 °C 72.0 °F /  22.2 °C 29.72 in /  1006.3 hPa SW 0.7 mph /  1.1 km/h 2.3 mph /  3.7 km/h 95 % 0.00 in /  0 mm
01:21 73.5 °F /  23.1 °C 72.0 °F /  22.2 °C 29.71 in /  1006 hPa WSW 3.1 mph /  5 km/h 5.8 mph /  9.3 km/h 95 % 0.00 in /  0 mm
01:26 73.5 °F /  23.1 °C 72.0 °F /  22.2 °C 29.71 in /  1006 hPa WSW 0.6 mph /  1 km/h 2.3 mph /  3.7 km/h 95 % 0.00 in /  0 mm
01:31 73.5 °F /  23.1 °C 72.0 °F /  22.2 °C 29.71 in /  1006 hPa WSW 0.3 mph /  0.5 km/h 1.2 mph /  1.9 km/h 95 % 0.00 in /  0 mm
01:36 73.4 °F /  23 °C 71.9 °F /  22.2 °C 29.71 in /  1006 hPa WSW 0.1 mph /  0.2 km/h 1.2 mph /  1.9 km/h 95 % 0.00 in /  0 mm
01:41 73.4 °F /  23 °C 71.9 °F /  22.2 °C 29.71 in /  1006 hPa WSW 1.9 mph /  3.1 km/h 3.5 mph /  5.6 km/h 95 % 0.00 in /  0 mm
01:46 73.4 °F /  23 °C 71.9 °F /  22.2 °C 29.71 in /  1006 hPa SW 1.7 mph /  2.7 km/h 3.0 mph /  4.8 km/h 95 % 0.00 in /  0 mm
01:51 73.4 °F /  23 °C 71.9 °F /  22.2 °C 29.71 in /  1006 hPa SW 2.0 mph /  3.2 km/h 5.0 mph /  8 km/h 95 % 0.00 in /  0 mm
01:56 73.3 °F /  22.9 °C 71.8 °F /  22.1 °C 29.71 in /  1006 hPa SSW 1.9 mph /  3.1 km/h 3.5 mph /  5.6 km/h 95 % 0.00 in /  0 mm
02:01 73.3 °F /  22.9 °C 71.8 °F /  22.1 °C 29.71 in /  1006 hPa WSW 3.2 mph /  5.1 km/h 4.0 mph /  6.4 km/h 95 % 0.00 in /  0 mm
02:06 73.3 °F /  22.9 °C 71.8 °F /  22.1 °C 29.71 in /  1006 hPa Calm   1.2 mph /  1.9 km/h 95 % 0.00 in /  0 mm
02:11 73.3 °F /  22.9 °C 71.8 °F /  22.1 °C 29.71 in /  1006 hPa SW 0.8 mph /  1.3 km/h 2.3 mph /  3.7 km/h 95 % 0.00 in /  0 mm
02:16 73.3 °F /  22.9 °C 71.8 °F /  22.1 °C 29.71 in /  1006 hPa Calm   3.5 mph /  5.6 km/h 95 % 0.00 in /  0 mm
02:21 73.2 °F /  22.9 °C 71.7 °F /  22.1 °C 29.70 in /  1005.6 hPa SW 0.5 mph /  0.8 km/h 3.5 mph /  5.6 km/h 95 % 0.00 in /  0 mm
02:26 73.2 °F /  22.9 °C 71.7 °F /  22.1 °C 29.71 in /  1006 hPa SW 1.5 mph /  2.4 km/h 3.5 mph /  5.6 km/h 95 % 0.00 in /  0 mm
02:31 73.2 °F /  22.9 °C 71.7 °F /  22.1 °C 29.71 in /  1006 hPa WSW 0.3 mph /  0.5 km/h 1.2 mph /  1.9 km/h 95 % 0.00 in /  0 mm
02:36 73.2 °F /  22.9 °C 71.7 °F /  22.1 °C 29.71 in /  1006 hPa WNW 0.2 mph /  0.3 km/h 3.5 mph /  5.6 km/h 95 % 0.00 in /  0 mm
02:41 73.2 °F /  22.9 °C 72.0 °F /  22.2 °C 29.71 in /  1006 hPa Calm   1.2 mph /  1.9 km/h 96 % 0.00 in /  0 mm
02:46 73.2 °F /  22.9 °C 72.0 °F /  22.2 °C 29.70 in /  1005.6 hPa WSW 0.2 mph /  0.3 km/h 1.2 mph /  1.9 km/h 96 % 0.00 in /  0 mm
02:51 73.1 °F /  22.8 °C 71.9 °F /  22.2 °C 29.70 in /  1005.6 hPa WSW 1.0 mph /  1.6 km/h 2.3 mph /  3.7 km/h 96 % 0.00 in /  0 mm
02:56 73.1 °F /  22.8 °C 71.9 °F /  22.2 °C 29.70 in /  1005.6 hPa Calm   2.3 mph /  3.7 km/h 96 % 0.00 in /  0 mm
03:01 73.1 °F /  22.8 °C 71.9 °F /  22.2 °C 29.70 in /  1005.6 hPa Calm   2.3 mph /  3.7 km/h 96 % 0.00 in /  0 mm
03:07 73.1 °F /  22.8 °C 71.9 °F /  22.2 °C 29.71 in /  1006 hPa Calm   1.2 mph /  1.9 km/h 96 % 0.00 in /  0 mm
03:12 73.2 °F /  22.9 °C 72.0 °F /  22.2 °C 29.71 in /  1006 hPa SW 0.2 mph /  0.3 km/h 1.0 mph /  1.6 km/h 96 % 0.00 in /  0 mm
03:17 73.2 °F /  22.9 °C 72.0 °F /  22.2 °C 29.71 in /  1006 hPa SW 0.2 mph /  0.3 km/h 2.3 mph /  3.7 km/h 96 % 0.00 in /  0 mm
03:22 73.2 °F /  22.9 °C 72.0 °F /  22.2 °C 29.71 in /  1006 hPa Calm     96 % 0.00 in /  0 mm
03:27 73.2 °F /  22.9 °C 72.0 °F /  22.2 °C 29.71 in /  1006 hPa Calm     96 % 0.00 in /  0 mm
03:32 73.1 °F /  22.8 °C 71.9 °F /  22.2 °C 29.71 in /  1006 hPa Calm     96 % 0.00 in /  0 mm
03:37 73.1 °F /  22.8 °C 71.9 °F /  22.2 °C 29.71 in /  1006 hPa Calm     96 % 0.00 in /  0 mm
03:42 73.1 °F /  22.8 °C 71.9 °F /  22.2 °C 29.72 in /  1006.3 hPa Calm     96 % 0.00 in /  0 mm
03:47 73.0 °F /  22.8 °C 71.8 °F /  22.1 °C 29.72 in /  1006.3 hPa SW 0.1 mph /  0.2 km/h   96 % 0.00 in /  0 mm
03:52 72.9 °F /  22.7 °C 71.7 °F /  22.1 °C 29.72 in /  1006.3 hPa Calm     96 % 0.00 in /  0 mm
03:57 72.9 °F /  22.7 °C 71.7 °F /  22.1 °C 29.72 in /  1006.3 hPa SW 0.4 mph /  0.6 km/h 2.3 mph /  3.7 km/h 96 % 0.00 in /  0 mm
04:02 72.9 °F /  22.7 °C 71.7 °F /  22.1 °C 29.71 in /  1006 hPa Calm     96 % 0.00 in /  0 mm
04:07 72.8 °F /  22.7 °C 71.6 °F /  22 °C 29.72 in /  1006.3 hPa SW 1.1 mph /  1.8 km/h 3.5 mph /  5.6 km/h 96 % 0.00 in /  0 mm
04:12 72.8 °F /  22.7 °C 71.6 °F /  22 °C 29.72 in /  1006.3 hPa Calm     96 % 0.00 in /  0 mm
04:17 72.7 °F /  22.6 °C 71.5 °F /  21.9 °C 29.72 in /  1006.3 hPa Calm     96 % 0.00 in /  0 mm
04:22 72.7 °F /  22.6 °C 71.5 °F /  21.9 °C 29.72 in /  1006.3 hPa Calm     96 % 0.00 in /  0 mm
04:27 72.6 °F /  22.6 °C 71.4 °F /  21.9 °C 29.72 in /  1006.3 hPa Calm     96 % 0.00 in /  0 mm
04:32 72.6 °F /  22.6 °C 71.4 °F /  21.9 °C 29.72 in /  1006.3 hPa Calm     96 % 0.00 in /  0 mm
04:37 72.5 °F /  22.5 °C 71.3 °F /  21.8 °C 29.72 in /  1006.3 hPa Calm     96 % 0.00 in /  0 mm
04:42 72.5 °F /  22.5 °C 71.3 °F /  21.8 °C 29.72 in /  1006.3 hPa Calm     96 % 0.00 in /  0 mm
04:47 72.4 °F /  22.4 °C 71.2 °F /  21.8 °C 29.73 in /  1006.7 hPa Calm     96 % 0.00 in /  0 mm
04:52 72.4 °F /  22.4 °C 71.2 °F /  21.8 °C 29.73 in /  1006.7 hPa Calm     96 % 0.00 in /  0 mm
04:57 72.3 °F /  22.4 °C 71.1 °F /  21.7 °C 29.73 in /  1006.7 hPa Calm     96 % 0.00 in /  0 mm
05:02 72.3 °F /  22.4 °C 71.1 °F /  21.7 °C 29.73 in /  1006.7 hPa Calm     96 % 0.00 in /  0 mm
05:07 72.2 °F /  22.3 °C 71.0 °F /  21.7 °C 29.73 in /  1006.7 hPa Calm     96 % 0.00 in /  0 mm
05:12 72.2 °F /  22.3 °C 71.0 °F /  21.7 °C 29.73 in /  1006.7 hPa SW 0.5 mph /  0.8 km/h 2.3 mph /  3.7 km/h 96 % 0.00 in /  0 mm
05:17 72.2 °F /  22.3 °C 71.0 °F /  21.7 °C 29.73 in /  1006.7 hPa Calm   1.2 mph /  1.9 km/h 96 % 0.00 in /  0 mm
05:22 72.2 °F /  22.3 °C 71.0 °F /  21.7 °C 29.74 in /  1007 hPa Calm   1.2 mph /  1.9 km/h 96 % 0.00 in /  0 mm
05:27 72.2 °F /  22.3 °C 71.0 °F /  21.7 °C 29.74 in /  1007 hPa WSW 1.5 mph /  2.4 km/h 3.5 mph /  5.6 km/h 96 % 0.00 in /  0 mm
05:32 72.3 °F /  22.4 °C 71.1 °F /  21.7 °C 29.74 in /  1007 hPa SW 1.0 mph /  1.6 km/h 3.5 mph /  5.6 km/h 96 % 0.00 in /  0 mm
05:37 72.3 °F /  22.4 °C 71.1 °F /  21.7 °C 29.74 in /  1007 hPa SW 1.2 mph /  1.9 km/h 2.3 mph /  3.7 km/h 96 % 0.00 in /  0 mm
05:43 72.3 °F /  22.4 °C 71.4 °F /  21.9 °C 29.74 in /  1007 hPa SW 0.8 mph /  1.3 km/h 3.0 mph /  4.8 km/h 97 % 0.00 in /  0 mm
05:48 72.3 °F /  22.4 °C 71.4 °F /  21.9 °C 29.75 in /  1007.3 hPa Calm   1.2 mph /  1.9 km/h 97 % 0.00 in /  0 mm
05:53 72.3 °F /  22.4 °C 71.4 °F /  21.9 °C 29.75 in /  1007.3 hPa WSW 0.7 mph /  1.1 km/h 3.5 mph /  5.6 km/h 97 % 0.00 in /  0 mm
05:58 72.3 °F /  22.4 °C 71.4 °F /  21.9 °C 29.75 in /  1007.3 hPa West 0.1 mph /  0.2 km/h 1.2 mph /  1.9 km/h 97 % 0.00 in /  0 mm
06:03 72.3 °F /  22.4 °C 71.4 °F /  21.9 °C 29.75 in /  1007.3 hPa Calm     97 % 0.00 in /  0 mm
06:08 72.3 °F /  22.4 °C 71.4 °F /  21.9 °C 29.75 in /  1007.3 hPa Calm     97 % 0.00 in /  0 mm
06:13 72.4 °F /  22.4 °C 71.5 °F /  21.9 °C 29.75 in /  1007.3 hPa SW 1.4 mph /  2.3 km/h 4.0 mph /  6.4 km/h 97 % 0.00 in /  0 mm
06:18 72.4 °F /  22.4 °C 71.5 °F /  21.9 °C 29.75 in /  1007.3 hPa SW 0.3 mph /  0.5 km/h 2.3 mph /  3.7 km/h 97 % 0.00 in /  0 mm
06:23 72.4 °F /  22.4 °C 71.5 °F /  21.9 °C 29.75 in /  1007.3 hPa SW 0.2 mph /  0.3 km/h 2.3 mph /  3.7 km/h 97 % 0.00 in /  0 mm
06:28 72.5 °F /  22.5 °C 71.6 °F /  22 °C 29.75 in /  1007.3 hPa WSW 1.4 mph /  2.3 km/h 3.5 mph /  5.6 km/h 97 % 0.00 in /  0 mm
06:33 72.5 °F /  22.5 °C 71.6 °F /  22 °C 29.75 in /  1007.3 hPa Calm     97 % 0.00 in /  0 mm
06:38 72.5 °F /  22.5 °C 71.6 °F /  22 °C 29.76 in /  1007.7 hPa West 0.9 mph /  1.4 km/h 3.0 mph /  4.8 km/h 97 % 0.00 in /  0 mm
06:43 72.5 °F /  22.5 °C 71.6 °F /  22 °C 29.75 in /  1007.3 hPa Calm     97 % 0.00 in /  0 mm
06:48 72.6 °F /  22.6 °C 71.7 °F /  22.1 °C 29.75 in /  1007.3 hPa West 0.7 mph /  1.1 km/h 2.0 mph /  3.2 km/h 97 % 0.00 in /  0 mm
06:53 72.6 °F /  22.6 °C 71.7 °F /  22.1 °C 29.76 in /  1007.7 hPa Calm     97 % 0.00 in /  0 mm
06:58 72.7 °F /  22.6 °C 71.8 °F /  22.1 °C 29.76 in /  1007.7 hPa WNW 1.2 mph /  1.9 km/h 2.3 mph /  3.7 km/h 97 % 0.00 in /  0 mm
07:03 72.7 °F /  22.6 °C 71.8 °F /  22.1 °C 29.76 in /  1007.7 hPa WNW 0.1 mph /  0.2 km/h 1.2 mph /  1.9 km/h 97 % 0.00 in /  0 mm
07:08 72.8 °F /  22.7 °C 71.9 °F /  22.2 °C 29.76 in /  1007.7 hPa Calm     97 % 0.00 in /  0 mm
07:13 72.8 °F /  22.7 °C 71.9 °F /  22.2 °C 29.76 in /  1007.7 hPa Calm   1.2 mph /  1.9 km/h 97 % 0.00 in /  0 mm
07:18 72.9 °F /  22.7 °C 72.0 °F /  22.2 °C 29.76 in /  1007.7 hPa WNW 0.1 mph /  0.2 km/h 2.3 mph /  3.7 km/h 97 % 0.00 in /  0 mm
07:23 72.9 °F /  22.7 °C 72.0 °F /  22.2 °C 29.76 in /  1007.7 hPa Calm   3.5 mph /  5.6 km/h 97 % 0.00 in /  0 mm
07:28 73.0 °F /  22.8 °C 72.1 °F /  22.3 °C 29.76 in /  1007.7 hPa West 0.8 mph /  1.3 km/h 3.5 mph /  5.6 km/h 97 % 0.00 in /  0 mm
07:33 73.0 °F /  22.8 °C 72.1 °F /  22.3 °C 29.77 in /  1008 hPa West 0.2 mph /  0.3 km/h 3.0 mph /  4.8 km/h 97 % 0.00 in /  0 mm
07:38 73.1 °F /  22.8 °C 72.2 °F /  22.3 °C 29.77 in /  1008 hPa West 1.0 mph /  1.6 km/h 3.5 mph /  5.6 km/h 97 % 0.00 in /  0 mm
07:43 73.2 °F /  22.9 °C 72.3 °F /  22.4 °C 29.77 in /  1008 hPa Calm   2.3 mph /  3.7 km/h 97 % 0.00 in /  0 mm
07:48 73.3 °F /  22.9 °C 72.4 °F /  22.4 °C 29.77 in /  1008 hPa West 1.2 mph /  1.9 km/h 4.6 mph /  7.4 km/h 97 % 0.00 in /  0 mm
07:53 73.4 °F /  23 °C 72.5 °F /  22.5 °C 29.77 in /  1008 hPa WNW 0.6 mph /  1 km/h 3.5 mph /  5.6 km/h 97 % 0.00 in /  0 mm
07:58 73.5 °F /  23.1 °C 72.6 °F /  22.6 °C 29.77 in /  1008 hPa West 0.8 mph /  1.3 km/h 2.3 mph /  3.7 km/h 97 % 0.00 in /  0 mm
08:03 73.6 °F /  23.1 °C 72.7 °F /  22.6 °C 29.77 in /  1008 hPa West 1.3 mph /  2.1 km/h 3.5 mph /  5.6 km/h 97 % 0.00 in /  0 mm
08:08 73.7 °F /  23.2 °C 73.1 °F /  22.8 °C 29.77 in /  1008 hPa WNW 1.6 mph /  2.6 km/h 1.6 mph /  2.6 km/h 98 % 0.00 in /  0 mm
08:13 73.8 °F /  23.2 °C 73.2 °F /  22.9 °C 29.78 in /  1008.4 hPa WNW 0.7 mph /  1.1 km/h 3.5 mph /  5.6 km/h 98 % 0.00 in /  0 mm
08:18 73.9 °F /  23.3 °C 73.3 °F /  22.9 °C 29.78 in /  1008.4 hPa WNW 0.9 mph /  1.4 km/h 2.3 mph /  3.7 km/h 98 % 0.00 in /  0 mm
08:23 73.9 °F /  23.3 °C 73.0 °F /  22.8 °C 29.78 in /  1008.4 hPa WNW 1.4 mph /  2.3 km/h 4.6 mph /  7.4 km/h 97 % 0.00 in /  0 mm
08:28 73.9 °F /  23.3 °C 73.0 °F /  22.8 °C 29.78 in /  1008.4 hPa WNW 1.6 mph /  2.6 km/h 2.3 mph /  3.7 km/h 97 % 0.00 in /  0 mm
08:33 74.0 °F /  23.3 °C 73.1 °F /  22.8 °C 29.78 in /  1008.4 hPa WNW 0.7 mph /  1.1 km/h 3.5 mph /  5.6 km/h 97 % 0.00 in /  0 mm
08:39 74.0 °F /  23.3 °C 73.1 °F /  22.8 °C 29.78 in /  1008.4 hPa WSW 1.1 mph /  1.8 km/h 3.5 mph /  5.6 km/h 97 % 0.00 in /  0 mm
08:44 74.0 °F /  23.3 °C 73.1 °F /  22.8 °C 29.78 in /  1008.4 hPa West 1.1 mph /  1.8 km/h 2.3 mph /  3.7 km/h 97 % 0.00 in /  0 mm
08:49 74.1 °F /  23.4 °C 73.2 °F /  22.9 °C 29.79 in /  1008.7 hPa WSW 1.8 mph /  2.9 km/h 3.5 mph /  5.6 km/h 97 % 0.00 in /  0 mm
08:54 74.1 °F /  23.4 °C 73.2 °F /  22.9 °C 29.79 in /  1008.7 hPa Calm     97 % 0.00 in /  0 mm
08:59 74.2 °F /  23.4 °C 73.3 °F /  22.9 °C 29.79 in /  1008.7 hPa WNW 2.5 mph /  4 km/h 3.5 mph /  5.6 km/h 97 % 0.00 in /  0 mm
09:04 74.3 °F /  23.5 °C 73.4 °F /  23 °C 29.79 in /  1008.7 hPa West 1.5 mph /  2.4 km/h 3.5 mph /  5.6 km/h 97 % 0.00 in /  0 mm
09:09 74.5 °F /  23.6 °C 73.6 °F /  23.1 °C 29.79 in /  1008.7 hPa NNE 1.4 mph /  2.3 km/h 3.5 mph /  5.6 km/h 97 % 0.00 in /  0 mm
09:14 74.7 °F /  23.7 °C 73.8 °F /  23.2 °C 29.79 in /  1008.7 hPa WNW 1.8 mph /  2.9 km/h 3.5 mph /  5.6 km/h 97 % 0.00 in /  0 mm
09:19 74.8 °F /  23.8 °C 73.6 °F /  23.1 °C 29.79 in /  1008.7 hPa WNW 2.3 mph /  3.7 km/h 3.5 mph /  5.6 km/h 96 % 0.00 in /  0 mm
09:24 75.0 °F /  23.9 °C 73.8 °F /  23.2 °C 29.79 in /  1008.7 hPa Calm   1.2 mph /  1.9 km/h 96 % 0.00 in /  0 mm
09:29 75.2 °F /  24 °C 74.0 °F /  23.3 °C 29.79 in /  1008.7 hPa Calm     96 % 0.00 in /  0 mm
09:34 75.4 °F /  24.1 °C 74.2 °F /  23.4 °C 29.79 in /  1008.7 hPa WNW 0.1 mph /  0.2 km/h 1.2 mph /  1.9 km/h 96 % 0.00 in /  0 mm
09:39 75.5 °F /  24.2 °C 74.0 °F /  23.3 °C 29.79 in /  1008.7 hPa WNW 1.9 mph /  3.1 km/h 3.5 mph /  5.6 km/h 95 % 0.00 in /  0 mm
09:44 75.7 °F /  24.3 °C 74.2 °F /  23.4 °C 29.79 in /  1008.7 hPa WNW 0.7 mph /  1.1 km/h 3.5 mph /  5.6 km/h 95 % 0.00 in /  0 mm
09:49 76.0 °F /  24.4 °C 74.5 °F /  23.6 °C 29.79 in /  1008.7 hPa WNW 1.3 mph /  2.1 km/h 3.5 mph /  5.6 km/h 95 % 0.00 in /  0 mm
09:54 76.6 °F /  24.8 °C 75.1 °F /  23.9 °C 29.80 in /  1009 hPa WNW 0.7 mph /  1.1 km/h 3.5 mph /  5.6 km/h 95 % 0.00 in /  0 mm
09:59 77.2 °F /  25.1 °C 75.3 °F /  24.1 °C 29.80 in /  1009 hPa SW 2.4 mph /  3.9 km/h 4.6 mph /  7.4 km/h 94 % 0.00 in /  0 mm
10:00 77.3 °F /  25.2 °C 75.1 °F /  23.9 °C 29.80 in /  1009 hPa SW 0.6 mph /  1 km/h 3.5 mph /  5.6 km/h 93 % 0.00 in /  0 mm
10:05 77.9 °F /  25.5 °C 75.4 °F /  24.1 °C 29.80 in /  1009 hPa WSW 1.9 mph /  3.1 km/h 3.5 mph /  5.6 km/h 92 % 0.00 in /  0 mm
10:06 78.0 °F /  25.6 °C 75.2 °F /  24 °C 29.80 in /  1009 hPa West 2.9 mph /  4.7 km/h 4.0 mph /  6.4 km/h 91 % 0.00 in /  0 mm
10:11 78.6 °F /  25.9 °C 75.4 °F /  24.1 °C 29.80 in /  1009 hPa NW 2.6 mph /  4.2 km/h 4.0 mph /  6.4 km/h 90 % 0.00 in /  0 mm
10:16 79.0 °F /  26.1 °C 75.1 °F /  23.9 °C 29.80 in /  1009 hPa West 1.1 mph /  1.8 km/h 3.5 mph /  5.6 km/h 88 % 0.00 in /  0 mm
10:17 79.1 °F /  26.2 °C 75.2 °F /  24 °C 29.80 in /  1009 hPa West 0.8 mph /  1.3 km/h 2.3 mph /  3.7 km/h 88 % 0.00 in /  0 mm
10:22 79.4 °F /  26.3 °C 75.5 °F /  24.2 °C 29.80 in /  1009 hPa WSW 1.2 mph /  1.9 km/h 4.0 mph /  6.4 km/h 88 % 0.00 in /  0 mm
10:27 79.8 °F /  26.6 °C 75.6 °F /  24.2 °C 29.80 in /  1009 hPa WSW 1.3 mph /  2.1 km/h 3.5 mph /  5.6 km/h 87 % 0.00 in /  0 mm
10:32 80.3 °F /  26.8 °C 75.4 °F /  24.1 °C 29.80 in /  1009 hPa West 0.9 mph /  1.4 km/h 3.5 mph /  5.6 km/h 85 % 0.00 in /  0 mm
10:37 80.8 °F /  27.1 °C 75.5 °F /  24.2 °C 29.80 in /  1009 hPa SW 3.6 mph /  5.8 km/h 4.6 mph /  7.4 km/h 84 % 0.00 in /  0 mm
10:42 81.2 °F /  27.3 °C 75.5 °F /  24.2 °C 29.80 in /  1009 hPa West 0.5 mph /  0.8 km/h 1.2 mph /  1.9 km/h 83 % 0.00 in /  0 mm
10:47 81.7 °F /  27.6 °C 75.7 °F /  24.3 °C 29.80 in /  1009 hPa NW 0.2 mph /  0.3 km/h 2.3 mph /  3.7 km/h 82 % 0.00 in /  0 mm
10:52 82.2 °F /  27.9 °C 75.8 °F /  24.3 °C 29.80 in /  1009 hPa West 1.0 mph /  1.6 km/h 3.5 mph /  5.6 km/h 81 % 0.00 in /  0 mm
10:57 82.7 °F /  28.2 °C 75.9 °F /  24.4 °C 29.80 in /  1009 hPa WNW 0.9 mph /  1.4 km/h 2.3 mph /  3.7 km/h 80 % 0.00 in /  0 mm
11:02 83.3 °F /  28.5 °C 76.1 °F /  24.5 °C 29.80 in /  1009 hPa WNW 1.2 mph /  1.9 km/h 3.5 mph /  5.6 km/h 79 % 0.00 in /  0 mm
11:07 83.7 °F /  28.7 °C 76.5 °F /  24.7 °C 29.81 in /  1009.4 hPa West 0.1 mph /  0.2 km/h 2.3 mph /  3.7 km/h 79 % 0.00 in /  0 mm
11:12 84.3 °F /  29.1 °C 75.9 °F /  24.4 °C 29.80 in /  1009 hPa Calm   1.2 mph /  1.9 km/h 76 % 0.00 in /  0 mm
11:17 84.8 °F /  29.3 °C 76.8 °F /  24.9 °C 29.81 in /  1009.4 hPa WNW 0.7 mph /  1.1 km/h 2.0 mph /  3.2 km/h 77 % 0.00 in /  0 mm
11:22 85.3 °F /  29.6 °C 76.5 °F /  24.7 °C 29.81 in /  1009.4 hPa WNW 0.7 mph /  1.1 km/h 2.3 mph /  3.7 km/h 75 % 0.00 in /  0 mm
11:27 86.0 °F /  30 °C 77.9 °F /  25.5 °C 29.81 in /  1009.4 hPa NW 0.2 mph /  0.3 km/h 1.2 mph /  1.9 km/h 77 % 0.00 in /  0 mm
11:32 86.5 °F /  30.3 °C 78.0 °F /  25.6 °C 29.80 in /  1009 hPa West 0.7 mph /  1.1 km/h 3.5 mph /  5.6 km/h 76 % 0.00 in /  0 mm
11:37 86.9 °F /  30.5 °C 75.9 °F /  24.4 °C 29.80 in /  1009 hPa WNW 2.4 mph /  3.9 km/h 4.6 mph /  7.4 km/h 70 % 0.00 in /  0 mm
11:42 87.2 °F /  30.7 °C 76.6 °F /  24.8 °C 29.80 in /  1009 hPa West 0.8 mph /  1.3 km/h 3.0 mph /  4.8 km/h 71 % 0.00 in /  0 mm
11:47 87.5 °F /  30.8 °C 76.9 °F /  24.9 °C 29.80 in /  1009 hPa West 0.7 mph /  1.1 km/h 2.3 mph /  3.7 km/h 71 % 0.00 in /  0 mm
11:52 87.8 °F /  31 °C 74.6 °F /  23.7 °C 29.80 in /  1009 hPa West 3.8 mph /  6.1 km/h 6.9 mph /  11.1 km/h 65 % 0.00 in /  0 mm
11:57 88.0 °F /  31.1 °C 73.8 °F /  23.2 °C 29.80 in /  1009 hPa WSW 4.0 mph /  6.4 km/h 6.0 mph /  9.7 km/h 63 % 0.00 in /  0 mm
12:02 88.2 °F /  31.2 °C 72.1 °F /  22.3 °C 29.80 in /  1009 hPa WSW 1.4 mph /  2.3 km/h 6.9 mph /  11.1 km/h 59 % 0.00 in /  0 mm
12:08 88.3 °F /  31.3 °C 72.7 °F /  22.6 °C 29.80 in /  1009 hPa West 3.4 mph /  5.5 km/h 6.9 mph /  11.1 km/h 60 % 0.00 in /  0 mm
12:13 88.5 °F /  31.4 °C 72.8 °F /  22.7 °C 29.80 in /  1009 hPa NW 1.2 mph /  1.9 km/h 4.6 mph /  7.4 km/h 60 % 0.00 in /  0 mm
12:18 88.7 °F /  31.5 °C 72.0 °F /  22.2 °C 29.80 in /  1009 hPa West 3.1 mph /  5 km/h 4.6 mph /  7.4 km/h 58 % 0.00 in /  0 mm
12:21 88.9 °F /  31.6 °C 72.7 °F /  22.6 °C 29.80 in /  1009 hPa WNW 4.1 mph /  6.6 km/h 5.8 mph /  9.3 km/h 59 % 0.00 in /  0 mm
12:26 89.1 °F /  31.7 °C 71.9 °F /  22.2 °C 29.80 in /  1009 hPa WSW 3.0 mph /  4.8 km/h 7.0 mph /  11.3 km/h 57 % 0.01 in /  0.25 mm
12:31 89.3 °F /  31.8 °C 71.5 °F /  21.9 °C 29.80 in /  1009 hPa WSW 2.0 mph /  3.2 km/h 7.0 mph /  11.3 km/h 56 % 0.00 in /  0 mm
12:36 89.5 °F /  31.9 °C 69.5 °F /  20.8 °C 29.80 in /  1009 hPa WSW 3.0 mph /  4.8 km/h 8.0 mph /  12.9 km/h 52 % 0.00 in /  0 mm
12:41 89.5 °F /  31.9 °C 69.0 °F /  20.6 °C 29.80 in /  1009 hPa WSW 6.0 mph /  9.7 km/h 10.0 mph /  16.1 km/h 51 % 0.00 in /  0 mm
12:46 89.6 °F /  32 °C 70.7 °F /  21.5 °C 29.80 in /  1009 hPa WSW 2.0 mph /  3.2 km/h 6.0 mph /  9.7 km/h 54 % 0.00 in /  0 mm
12:51 89.9 °F /  32.2 °C 71.6 °F /  22 °C 29.80 in /  1009 hPa WSW 1.0 mph /  1.6 km/h 5.0 mph /  8 km/h 55 % 0.00 in /  0 mm
12:56 90.1 °F /  32.3 °C 70.7 °F /  21.5 °C 29.80 in /  1009 hPa West 2.0 mph /  3.2 km/h 6.0 mph /  9.7 km/h 53 % 0.00 in /  0 mm
13:01 90.2 °F /  32.3 °C 70.2 °F /  21.2 °C 29.80 in /  1009 hPa WNW 1.2 mph /  1.9 km/h 10.4 mph /  16.7 km/h 52 % 0.01 in /  0.25 mm
13:06 90.1 °F /  32.3 °C 69.5 °F /  20.8 °C 29.79 in /  1008.7 hPa WSW 2.6 mph /  4.2 km/h 5.8 mph /  9.3 km/h 51 % 0.01 in /  0.25 mm
13:11 90.2 °F /  32.3 °C 71.8 °F /  22.1 °C 29.79 in /  1008.7 hPa WSW 4.5 mph /  7.2 km/h 6.9 mph /  11.1 km/h 55 % 0.01 in /  0.25 mm
13:16 90.4 °F /  32.4 °C 72.0 °F /  22.2 °C 29.79 in /  1008.7 hPa SW 4.9 mph /  7.9 km/h 6.9 mph /  11.1 km/h 55 % 0.01 in /  0.25 mm
13:21 90.5 °F /  32.5 °C 69.9 °F /  21.1 °C 29.79 in /  1008.7 hPa WSW 5.6 mph /  9 km/h 9.2 mph /  14.8 km/h 51 % 0.01 in /  0.25 mm
13:26 90.6 °F /  32.6 °C 71.1 °F /  21.7 °C 29.79 in /  1008.7 hPa West 3.0 mph /  4.8 km/h 9.2 mph /  14.8 km/h 53 % 0.00 in /  0 mm
13:31 90.7 °F /  32.6 °C 70.7 °F /  21.5 °C 29.79 in /  1008.7 hPa WNW 2.1 mph /  3.4 km/h 5.8 mph /  9.3 km/h 52 % 0.00 in /  0 mm
13:36 90.8 °F /  32.7 °C 71.3 °F /  21.8 °C 29.79 in /  1008.7 hPa West 4.4 mph /  7.1 km/h 8.1 mph /  13 km/h 53 % 0.00 in /  0 mm
13:41 90.9 °F /  32.7 °C 70.8 °F /  21.6 °C 29.79 in /  1008.7 hPa WNW 3.3 mph /  5.3 km/h 6.0 mph /  9.7 km/h 52 % 0.00 in /  0 mm
13:46 91.0 °F /  32.8 °C 73.1 °F /  22.8 °C 29.79 in /  1008.7 hPa SSW 1.1 mph /  1.8 km/h 3.0 mph /  4.8 km/h 56 % 0.00 in /  0 mm
13:51 91.1 °F /  32.8 °C 73.7 °F /  23.2 °C 29.79 in /  1008.7 hPa NNW 0.5 mph /  0.8 km/h 1.2 mph /  1.9 km/h 57 % 0.00 in /  0 mm
13:56 91.1 °F /  32.8 °C 73.2 °F /  22.9 °C 29.79 in /  1008.7 hPa North 0.9 mph /  1.4 km/h 3.5 mph /  5.6 km/h 56 % 0.00 in /  0 mm
14:01 91.3 °F /  32.9 °C 73.4 °F /  23 °C 29.79 in /  1008.7 hPa West 1.2 mph /  1.9 km/h 4.6 mph /  7.4 km/h 56 % 0.00 in /  0 mm
14:06 91.1 °F /  32.8 °C 72.7 °F /  22.6 °C 29.78 in /  1008.4 hPa North 1.9 mph /  3.1 km/h 3.5 mph /  5.6 km/h 55 % 0.00 in /  0 mm
14:11 91.0 °F /  32.8 °C 72.6 °F /  22.6 °C 29.78 in /  1008.4 hPa NE 1.6 mph /  2.6 km/h 4.0 mph /  6.4 km/h 55 % 0.00 in /  0 mm
14:16 90.9 °F /  32.7 °C 72.5 °F /  22.5 °C 29.78 in /  1008.4 hPa West 1.9 mph /  3.1 km/h 3.5 mph /  5.6 km/h 55 % 0.00 in /  0 mm
14:21 91.1 °F /  32.8 °C 72.7 °F /  22.6 °C 29.78 in /  1008.4 hPa WSW 1.3 mph /  2.1 km/h 3.5 mph /  5.6 km/h 55 % 0.00 in /  0 mm
14:26 91.2 °F /  32.9 °C 71.7 °F /  22.1 °C 29.78 in /  1008.4 hPa WNW 2.2 mph /  3.5 km/h 6.9 mph /  11.1 km/h 53 % 0.00 in /  0 mm
14:31 91.3 °F /  32.9 °C 72.9 °F /  22.7 °C 29.78 in /  1008.4 hPa WNW 0.5 mph /  0.8 km/h 7.0 mph /  11.3 km/h 55 % 0.00 in /  0 mm
14:36 91.4 °F /  33 °C 71.3 °F /  21.8 °C 29.78 in /  1008.4 hPa WNW 4.8 mph /  7.7 km/h 8.0 mph /  12.9 km/h 52 % 0.00 in /  0 mm
14:41 91.4 °F /  33 °C 71.9 °F /  22.2 °C 29.78 in /  1008.4 hPa NNE 2.2 mph /  3.5 km/h 4.0 mph /  6.4 km/h 53 % 0.00 in /  0 mm
14:46 91.5 °F /  33.1 °C 70.8 °F /  21.6 °C 29.78 in /  1008.4 hPa NW 5.4 mph /  8.7 km/h 7.0 mph /  11.3 km/h 51 % 0.00 in /  0 mm
14:51 91.5 °F /  33.1 °C 72.5 °F /  22.5 °C 29.77 in /  1008 hPa NW 0.8 mph /  1.3 km/h 3.5 mph /  5.6 km/h 54 % 0.00 in /  0 mm
14:56 91.6 °F /  33.1 °C 74.2 °F /  23.4 °C 29.77 in /  1008 hPa West 0.2 mph /  0.3 km/h 1.2 mph /  1.9 km/h 57 % 0.00 in /  0 mm
15:01 91.7 °F /  33.2 °C 73.2 °F /  22.9 °C 29.77 in /  1008 hPa NW 1.0 mph /  1.6 km/h 3.5 mph /  5.6 km/h 55 % 0.00 in /  0 mm
15:06 91.9 °F /  33.3 °C 72.3 °F /  22.4 °C 29.77 in /  1008 hPa NW 3.8 mph /  6.1 km/h 6.0 mph /  9.7 km/h 53 % 0.00 in /  0 mm
15:11 91.9 °F /  33.3 °C 71.8 °F /  22.1 °C 29.77 in /  1008 hPa West 2.7 mph /  4.3 km/h 4.6 mph /  7.4 km/h 52 % 0.00 in /  0 mm
15:16 92.1 °F /  33.4 °C 71.9 °F /  22.2 °C 29.77 in /  1008 hPa WSW 2.6 mph /  4.2 km/h 4.6 mph /  7.4 km/h 52 % 0.00 in /  0 mm
15:21 92.2 °F /  33.4 °C 71.5 °F /  21.9 °C 29.77 in /  1008 hPa West 1.9 mph /  3.1 km/h 4.6 mph /  7.4 km/h 51 % 0.00 in /  0 mm
15:27 92.2 °F /  33.4 °C 72.0 °F /  22.2 °C 29.77 in /  1008 hPa WNW 2.6 mph /  4.2 km/h 4.0 mph /  6.4 km/h 52 % 0.00 in /  0 mm
15:32 91.9 °F /  33.3 °C 70.6 °F /  21.4 °C 29.77 in /  1008 hPa NNE 1.1 mph /  1.8 km/h 3.5 mph /  5.6 km/h 50 % 0.00 in /  0 mm
15:37 91.3 °F /  32.9 °C 72.3 °F /  22.4 °C 29.77 in /  1008 hPa NW 0.7 mph /  1.1 km/h 3.5 mph /  5.6 km/h 54 % 0.00 in /  0 mm
15:42 91.0 °F /  32.8 °C 70.4 °F /  21.3 °C 29.77 in /  1008 hPa WSW 1.5 mph /  2.4 km/h 3.5 mph /  5.6 km/h 51 % 0.00 in /  0 mm
15:47 91.1 °F /  32.8 °C 72.7 °F /  22.6 °C 29.77 in /  1008 hPa NW 0.8 mph /  1.3 km/h 2.3 mph /  3.7 km/h 55 % 0.00 in /  0 mm
15:52 91.2 °F /  32.9 °C 72.2 °F /  22.3 °C 29.77 in /  1008 hPa WNW 0.1 mph /  0.2 km/h 1.2 mph /  1.9 km/h 54 % 0.00 in /  0 mm
15:57 91.3 °F /  32.9 °C 70.1 °F /  21.2 °C 29.77 in /  1008 hPa West 3.7 mph /  6 km/h 5.8 mph /  9.3 km/h 50 % 0.00 in /  0 mm
16:02 91.4 °F /  33 °C 71.3 °F /  21.8 °C 29.77 in /  1008 hPa WNW 0.5 mph /  0.8 km/h 2.0 mph /  3.2 km/h 52 % 0.00 in /  0 mm
16:07 91.3 °F /  32.9 °C 70.6 °F /  21.4 °C 29.77 in /  1008 hPa West 3.8 mph /  6.1 km/h 6.9 mph /  11.1 km/h 51 % 0.00 in /  0 mm
16:12 91.3 °F /  32.9 °C 71.8 °F /  22.1 °C 29.77 in /  1008 hPa West 0.4 mph /  0.6 km/h 1.2 mph /  1.9 km/h 53 % 0.00 in /  0 mm
16:17 91.2 °F /  32.9 °C 69.4 °F /  20.8 °C 29.77 in /  1008 hPa West 1.9 mph /  3.1 km/h 3.5 mph /  5.6 km/h 49 % 0.00 in /  0 mm
16:22 91.2 °F /  32.9 °C 68.8 °F /  20.4 °C 29.77 in /  1008 hPa WNW 1.1 mph /  1.8 km/h 2.3 mph /  3.7 km/h 48 % 0.00 in /  0 mm
16:27 91.2 °F /  32.9 °C 70.5 °F /  21.4 °C 29.77 in /  1008 hPa WSW 0.4 mph /  0.6 km/h 1.2 mph /  1.9 km/h 51 % 0.00 in /  0 mm
16:32 91.1 °F /  32.8 °C 69.9 °F /  21.1 °C 29.77 in /  1008 hPa West 1.9 mph /  3.1 km/h 3.5 mph /  5.6 km/h 50 % 0.00 in /  0 mm
16:37 91.0 °F /  32.8 °C 68.6 °F /  20.3 °C 29.77 in /  1008 hPa West 2.8 mph /  4.5 km/h 4.6 mph /  7.4 km/h 48 % 0.00 in /  0 mm
16:42 91.0 °F /  32.8 °C 69.2 °F /  20.7 °C 29.77 in /  1008 hPa WNW 1.2 mph /  1.9 km/h 2.3 mph /  3.7 km/h 49 % 0.00 in /  0 mm
16:44 90.8 °F /  32.7 °C 70.7 °F /  21.5 °C 29.77 in /  1008 hPa NW 0.1 mph /  0.2 km/h 1.2 mph /  1.9 km/h 52 % 0.00 in /  0 mm
16:49 90.5 °F /  32.5 °C 69.9 °F /  21.1 °C 29.77 in /  1008 hPa West 1.9 mph /  3.1 km/h 4.0 mph /  6.4 km/h 51 % 0.00 in /  0 mm
16:55 90.3 °F /  32.4 °C 68.5 °F /  20.3 °C 29.77 in /  1008 hPa West 2.8 mph /  4.5 km/h 4.0 mph /  6.4 km/h 49 % 0.00 in /  0 mm
17:00 90.3 °F /  32.4 °C 68.5 °F /  20.3 °C 29.76 in /  1007.7 hPa West 0.7 mph /  1.1 km/h 6.9 mph /  11.1 km/h 49 % 0.00 in /  0 mm
17:05 90.2 °F /  32.3 °C 69.6 °F /  20.9 °C 29.77 in /  1008 hPa Calm   3.5 mph /  5.6 km/h 51 % 0.00 in /  0 mm
17:10 90.1 °F /  32.3 °C 67.8 °F /  19.9 °C 29.77 in /  1008 hPa WNW 1.6 mph /  2.6 km/h 5.8 mph /  9.3 km/h 48 % 0.00 in /  0 mm
17:15 89.9 °F /  32.2 °C 68.8 °F /  20.4 °C 29.77 in /  1008 hPa WNW 1.8 mph /  2.9 km/h 3.5 mph /  5.6 km/h 50 % 0.00 in /  0 mm
17:20 89.8 °F /  32.1 °C 68.1 °F /  20.1 °C 29.76 in /  1007.7 hPa Calm     49 % 0.00 in /  0 mm
17:25 89.8 °F /  32.1 °C 68.1 °F /  20.1 °C 29.76 in /  1007.7 hPa SW 1.6 mph /  2.6 km/h 5.0 mph /  8 km/h 49 % 0.00 in /  0 mm
17:30 89.7 °F /  32.1 °C 68.6 °F /  20.3 °C 29.76 in /  1007.7 hPa WNW 0.3 mph /  0.5 km/h 2.3 mph /  3.7 km/h 50 % 0.00 in /  0 mm
17:35 89.5 °F /  31.9 °C 67.8 °F /  19.9 °C 29.76 in /  1007.7 hPa West 2.1 mph /  3.4 km/h 3.5 mph /  5.6 km/h 49 % 0.00 in /  0 mm
17:40 89.3 °F /  31.8 °C 68.2 °F /  20.1 °C 29.76 in /  1007.7 hPa WNW 2.3 mph /  3.7 km/h 4.6 mph /  7.4 km/h 50 % 0.00 in /  0 mm
17:45 89.1 °F /  31.7 °C 67.5 °F /  19.7 °C 29.76 in /  1007.7 hPa SW 2.8 mph /  4.5 km/h 4.0 mph /  6.4 km/h 49 % 0.00 in /  0 mm
17:50 88.9 °F /  31.6 °C 68.4 °F /  20.2 °C 29.76 in /  1007.7 hPa SSW 1.1 mph /  1.8 km/h 3.5 mph /  5.6 km/h 51 % 0.00 in /  0 mm
17:55 88.7 °F /  31.5 °C 67.7 °F /  19.8 °C 29.76 in /  1007.7 hPa SW 0.1 mph /  0.2 km/h 3.5 mph /  5.6 km/h 50 % 0.00 in /  0 mm
18:00 88.4 °F /  31.3 °C 67.4 °F /  19.7 °C 29.76 in /  1007.7 hPa WSW 0.6 mph /  1 km/h 3.5 mph /  5.6 km/h 50 % 0.00 in /  0 mm
18:05 88.2 °F /  31.2 °C 67.8 °F /  19.9 °C 29.76 in /  1007.7 hPa WSW 2.5 mph /  4 km/h 4.6 mph /  7.4 km/h 51 % 0.00 in /  0 mm
18:10 88.0 °F /  31.1 °C 67.6 °F /  19.8 °C 29.76 in /  1007.7 hPa WSW 1.3 mph /  2.1 km/h 3.5 mph /  5.6 km/h 51 % 0.00 in /  0 mm
18:15 87.7 °F /  30.9 °C 68.4 °F /  20.2 °C 29.76 in /  1007.7 hPa SW 0.7 mph /  1.1 km/h 3.5 mph /  5.6 km/h 53 % 0.00 in /  0 mm
18:20 87.5 °F /  30.8 °C 69.3 °F /  20.7 °C 29.76 in /  1007.7 hPa SW 0.5 mph /  0.8 km/h 4.0 mph /  6.4 km/h 55 % 0.00 in /  0 mm
18:25 87.2 °F /  30.7 °C 69.6 °F /  20.9 °C 29.76 in /  1007.7 hPa WSW 0.5 mph /  0.8 km/h 3.5 mph /  5.6 km/h 56 % 0.00 in /  0 mm
18:31 87.0 °F /  30.6 °C 69.4 °F /  20.8 °C 29.76 in /  1007.7 hPa Calm   3.0 mph /  4.8 km/h 56 % 0.00 in /  0 mm
18:36 86.8 °F /  30.4 °C 69.7 °F /  20.9 °C 29.76 in /  1007.7 hPa SW 0.1 mph /  0.2 km/h 1.2 mph /  1.9 km/h 57 % 0.00 in /  0 mm
18:41 86.5 °F /  30.3 °C 69.9 °F /  21.1 °C 29.76 in /  1007.7 hPa Calm   2.0 mph /  3.2 km/h 58 % 0.00 in /  0 mm
18:46 86.1 °F /  30.1 °C 69.6 °F /  20.9 °C 29.76 in /  1007.7 hPa SW 1.0 mph /  1.6 km/h 6.0 mph /  9.7 km/h 58 % 0.00 in /  0 mm
18:51 85.9 °F /  29.9 °C 69.9 °F /  21.1 °C 29.76 in /  1007.7 hPa WSW 2.0 mph /  3.2 km/h 10.0 mph /  16.1 km/h 59 % 0.00 in /  0 mm
18:56 85.6 °F /  29.8 °C 69.6 °F /  20.9 °C 29.76 in /  1007.7 hPa WSW 1.0 mph /  1.6 km/h 4.0 mph /  6.4 km/h 59 % 0.00 in /  0 mm
19:01 85.2 °F /  29.6 °C 69.3 °F /  20.7 °C 29.77 in /  1008 hPa WSW 0.5 mph /  0.8 km/h 2.3 mph /  3.7 km/h 59 % 0.00 in /  0 mm
19:06 85.0 °F /  29.4 °C 69.6 °F /  20.9 °C 29.77 in /  1008 hPa Calm   2.3 mph /  3.7 km/h 60 % 0.00 in /  0 mm
19:11 84.7 °F /  29.3 °C 69.8 °F /  21 °C 29.77 in /  1008 hPa SW 0.3 mph /  0.5 km/h 1.2 mph /  1.9 km/h 61 % 0.00 in /  0 mm
19:16 84.3 °F /  29.1 °C 69.4 °F /  20.8 °C 29.77 in /  1008 hPa SW 0.1 mph /  0.2 km/h 1.0 mph /  1.6 km/h 61 % 0.00 in /  0 mm
19:21 84.0 °F /  28.9 °C 69.6 °F /  20.9 °C 29.77 in /  1008 hPa Calm     62 % 0.00 in /  0 mm
19:26 83.7 °F /  28.7 °C 69.3 °F /  20.7 °C 29.76 in /  1007.7 hPa Calm     62 % 0.00 in /  0 mm
19:31 83.4 °F /  28.6 °C 69.5 °F /  20.8 °C 29.77 in /  1008 hPa Calm   1.0 mph /  1.6 km/h 63 % 0.00 in /  0 mm
19:36 83.0 °F /  28.3 °C 69.6 °F /  20.9 °C 29.77 in /  1008 hPa Calm     64 % 0.00 in /  0 mm
19:41 82.7 °F /  28.2 °C 69.3 °F /  20.7 °C 29.77 in /  1008 hPa Calm   1.2 mph /  1.9 km/h 64 % 0.00 in /  0 mm
19:46 82.4 °F /  28 °C 69.0 °F /  20.6 °C 29.78 in /  1008.4 hPa SW 0.3 mph /  0.5 km/h 1.2 mph /  1.9 km/h 64 % 0.00 in /  0 mm
19:51 82.1 °F /  27.8 °C 69.2 °F /  20.7 °C 29.78 in /  1008.4 hPa SW 0.2 mph /  0.3 km/h 1.2 mph /  1.9 km/h 65 % 0.00 in /  0 mm
19:56 81.7 °F /  27.6 °C 68.8 °F /  20.4 °C 29.78 in /  1008.4 hPa SW 0.1 mph /  0.2 km/h 1.2 mph /  1.9 km/h 65 % 0.00 in /  0 mm
20:01 81.4 °F /  27.4 °C 68.9 °F /  20.5 °C 29.78 in /  1008.4 hPa SW 0.1 mph /  0.2 km/h 1.2 mph /  1.9 km/h 66 % 0.00 in /  0 mm
20:06 81.1 °F /  27.3 °C 68.7 °F /  20.4 °C 29.78 in /  1008.4 hPa Calm     66 % 0.00 in /  0 mm
20:11 80.7 °F /  27.1 °C 68.7 °F /  20.4 °C 29.78 in /  1008.4 hPa Calm     67 % 0.00 in /  0 mm
20:16 80.5 °F /  26.9 °C 69.0 °F /  20.6 °C 29.78 in /  1008.4 hPa Calm     68 % 0.00 in /  0 mm
20:21 80.2 °F /  26.8 °C 68.7 °F /  20.4 °C 29.79 in /  1008.7 hPa Calm   1.2 mph /  1.9 km/h 68 % 0.00 in /  0 mm
20:27 80.0 °F /  26.7 °C 68.9 °F /  20.5 °C 29.79 in /  1008.7 hPa Calm   1.0 mph /  1.6 km/h 69 % 0.00 in /  0 mm
20:32 79.8 °F /  26.6 °C 69.1 °F /  20.6 °C 29.79 in /  1008.7 hPa Calm     70 % 0.00 in /  0 mm
20:37 79.6 °F /  26.4 °C 69.0 °F /  20.6 °C 29.79 in /  1008.7 hPa Calm   1.2 mph /  1.9 km/h 70 % 0.00 in /  0 mm
20:42 79.3 °F /  26.3 °C 69.1 °F /  20.6 °C 29.79 in /  1008.7 hPa SW 0.1 mph /  0.2 km/h   71 % 0.00 in /  0 mm
20:47 79.1 °F /  26.2 °C 68.9 °F /  20.5 °C 29.79 in /  1008.7 hPa Calm     71 % 0.00 in /  0 mm
20:52 78.9 °F /  26.1 °C 69.1 °F /  20.6 °C 29.80 in /  1009 hPa Calm   1.2 mph /  1.9 km/h 72 % 0.00 in /  0 mm
20:57 78.6 °F /  25.9 °C 69.2 °F /  20.7 °C 29.79 in /  1008.7 hPa SW 0.3 mph /  0.5 km/h 1.2 mph /  1.9 km/h 73 % 0.00 in /  0 mm
21:02 78.4 °F /  25.8 °C 69.4 °F /  20.8 °C 29.79 in /  1008.7 hPa Calm   1.2 mph /  1.9 km/h 74 % 0.00 in /  0 mm
21:07 78.2 °F /  25.7 °C 69.2 °F /  20.7 °C 29.80 in /  1009 hPa Calm   1.2 mph /  1.9 km/h 74 % 0.00 in /  0 mm
21:12 78.0 °F /  25.6 °C 69.4 °F /  20.8 °C 29.80 in /  1009 hPa Calm     75 % 0.00 in /  0 mm
21:17 77.9 °F /  25.5 °C 69.3 °F /  20.7 °C 29.80 in /  1009 hPa Calm     75 % 0.00 in /  0 mm
21:22 77.7 °F /  25.4 °C 69.5 °F /  20.8 °C 29.80 in /  1009 hPa Calm     76 % 0.00 in /  0 mm
21:27 77.6 °F /  25.3 °C 69.4 °F /  20.8 °C 29.80 in /  1009 hPa Calm   1.2 mph /  1.9 km/h 76 % 0.00 in /  0 mm
21:32 77.4 °F /  25.2 °C 69.6 °F /  20.9 °C 29.80 in /  1009 hPa Calm     77 % 0.00 in /  0 mm
21:37 77.2 °F /  25.1 °C 69.4 °F /  20.8 °C 29.81 in /  1009.4 hPa Calm   1.2 mph /  1.9 km/h 77 % 0.00 in /  0 mm
21:41 77.1 °F /  25.1 °C 69.4 °F /  20.8 °C 29.81 in /  1009.4 hPa Calm   1.0 mph /  1.6 km/h 77 % 0.00 in /  0 mm
21:46 77.0 °F /  25 °C 69.6 °F /  20.9 °C 29.81 in /  1009.4 hPa Calm   1.0 mph /  1.6 km/h 78 % 0.00 in /  0 mm
21:51 76.9 °F /  24.9 °C 69.5 °F /  20.8 °C 29.81 in /  1009.4 hPa Calm     78 % 0.00 in /  0 mm
21:56 76.7 °F /  24.8 °C 69.3 °F /  20.7 °C 29.82 in /  1009.7 hPa Calm     78 % 0.00 in /  0 mm
22:01 76.5 °F /  24.7 °C 69.5 °F /  20.8 °C 29.82 in /  1009.7 hPa Calm     79 % 0.00 in /  0 mm
22:06 76.4 °F /  24.7 °C 69.4 °F /  20.8 °C 29.82 in /  1009.7 hPa Calm     79 % 0.00 in /  0 mm
22:11 76.2 °F /  24.6 °C 69.2 °F /  20.7 °C 29.82 in /  1009.7 hPa Calm   1.2 mph /  1.9 km/h 79 % 0.00 in /  0 mm
22:16 76.0 °F /  24.4 °C 69.0 °F /  20.6 °C 29.82 in /  1009.7 hPa Calm     79 % 0.00 in /  0 mm
22:21 75.9 °F /  24.4 °C 68.9 °F /  20.5 °C 29.83 in /  1010 hPa Calm     79 % 0.00 in /  0 mm
22:26 75.8 °F /  24.3 °C 69.2 °F /  20.7 °C 29.82 in /  1009.7 hPa Calm     80 % 0.00 in /  0 mm
22:31 75.6 °F /  24.2 °C 69.0 °F /  20.6 °C 29.82 in /  1009.7 hPa Calm     80 % 0.00 in /  0 mm
22:36 75.5 °F /  24.2 °C 69.3 °F /  20.7 °C 29.83 in /  1010 hPa Calm     81 % 0.00 in /  0 mm
22:41 75.3 °F /  24.1 °C 69.1 °F /  20.6 °C 29.83 in /  1010 hPa Calm     81 % 0.00 in /  0 mm
22:46 75.2 °F /  24 °C 69.0 °F /  20.6 °C 29.83 in /  1010 hPa Calm     81 % 0.00 in /  0 mm
22:51 75.1 °F /  23.9 °C 68.9 °F /  20.5 °C 29.83 in /  1010 hPa Calm     81 % 0.00 in /  0 mm
22:56 75.0 °F /  23.9 °C 68.8 °F /  20.4 °C 29.83 in /  1010 hPa Calm     81 % 0.00 in /  0 mm
23:01 74.9 °F /  23.8 °C 69.0 °F /  20.6 °C 29.83 in /  1010 hPa SW 0.1 mph /  0.2 km/h 1.0 mph /  1.6 km/h 82 % 0.00 in /  0 mm
23:06 74.8 °F /  23.8 °C 68.9 °F /  20.5 °C 29.83 in /  1010 hPa Calm     82 % 0.00 in /  0 mm
23:12 74.7 °F /  23.7 °C 68.8 °F /  20.4 °C 29.83 in /  1010 hPa Calm     82 % 0.00 in /  0 mm
23:17 74.6 °F /  23.7 °C 69.1 °F /  20.6 °C 29.83 in /  1010 hPa Calm     83 % 0.00 in /  0 mm
23:21 74.5 °F /  23.6 °C 69.0 °F /  20.6 °C 29.83 in /  1010 hPa Calm     83 % 0.00 in /  0 mm
23:23 74.5 °F /  23.6 °C 69.0 °F /  20.6 °C 29.83 in /  1010 hPa Calm     83 % 0.00 in /  0 mm
23:25 74.5 °F /  23.6 °C 69.0 °F /  20.6 °C 29.83 in /  1010 hPa Calm     83 % 0.00 in /  0 mm
23:30 74.4 °F /  23.6 °C 68.9 °F /  20.5 °C 29.83 in /  1010 hPa Calm     83 % 0.00 in /  0 mm
23:35 74.3 °F /  23.5 °C 68.8 °F /  20.4 °C 29.83 in /  1010 hPa Calm     83 % 0.00 in /  0 mm
23:40 74.2 °F /  23.4 °C 68.3 °F /  20.2 °C 29.83 in /  1010 hPa Calm     82 % 0.00 in /  0 mm
23:45 74.2 °F /  23.4 °C 68.3 °F /  20.2 °C 29.82 in /  1009.7 hPa Calm     82 % 0.00 in /  0 mm
23:50 74.1 °F /  23.4 °C 68.6 °F /  20.3 °C 29.83 in /  1010 hPa Calm     83 % 0.00 in /  0 mm
23:55 74.0 °F /  23.3 °C 68.2 °F /  20.1 °C 29.82 in /  1009.7 hPa Calm     82 % 0.00 in /  0 mm
Crab Meadow Weather
Compliments of Weather Underground - 3 mb

Script developed by  Jim McMurry - jmcmurry@mwt.net Adapted for the template by  Wim van der Kuil - Leuven-Template.eu

Wind Chill: Everyone has noticed that in winter it seems colder when the wind is blowing. Mothers recognize this and tell their children to wear more clothes. The question the children ask is how much more clothes. Mothers answer very precisely because Mothers know everything. For the rest of us, wind chill calculations are the basis for determining the effect of wind on body heat loss. The wind chill equivalent temperature equation is: Wind chill temperature = 35.74 + 0.6215T - 35.75V (**0.16) + 0.4275TV(**0.16) where T is the air temperature in Fahrenheit and V is the wind speed in MPH.